createdAt,value
2023-05-15T00:02:02.208Z,9.39
2023-05-15T00:04:29.323Z,9.37
2023-05-15T00:06:56.404Z,9.37
2023-05-15T00:09:23.417Z,9.36
2023-05-15T00:11:50.551Z,9.33
2023-05-15T00:14:17.522Z,9.31
2023-05-15T00:16:44.658Z,9.32
2023-05-15T00:19:11.894Z,9.31
2023-05-15T00:21:39.134Z,9.28
2023-05-15T00:24:06.359Z,9.24
2023-05-15T00:26:37.076Z,9.21
2023-05-15T00:29:04.237Z,9.19
2023-05-15T00:31:31.289Z,9.17
2023-05-15T00:33:58.857Z,9.16
2023-05-15T00:36:26.840Z,9.14
2023-05-15T00:38:54.051Z,9.11
2023-05-15T00:41:22.943Z,9.09
2023-05-15T00:43:52.333Z,9.06
2023-05-15T00:46:21.379Z,9.04
2023-05-15T00:48:50.770Z,9.05
2023-05-15T00:51:18.332Z,9.04
2023-05-15T00:53:50.790Z,9.03
2023-05-15T00:56:18.446Z,9.01
2023-05-15T00:58:49.702Z,8.99
2023-05-15T01:01:18.658Z,8.99
2023-05-15T01:03:46.344Z,8.98
2023-05-15T01:06:13.918Z,8.98
2023-05-15T01:08:46.732Z,8.96
2023-05-15T01:11:15.368Z,8.95
2023-05-15T01:13:42.811Z,8.94
2023-05-15T01:16:10.680Z,8.91
2023-05-15T01:18:38.016Z,8.88
2023-05-15T01:21:43.736Z,8.88
2023-05-15T01:24:23.035Z,8.87
2023-05-15T01:27:27.598Z,8.84
2023-05-15T01:30:32.538Z,8.81
2023-05-15T01:33:08.658Z,8.80
2023-05-15T01:35:45.402Z,8.78
2023-05-15T01:38:21.835Z,8.76
2023-05-15T01:40:57.358Z,8.77
2023-05-15T01:43:29.127Z,8.76
2023-05-15T01:46:07.852Z,8.76
2023-05-15T01:48:36.671Z,8.77
2023-05-15T01:51:07.960Z,8.66
2023-05-15T01:53:37.377Z,8.80
2023-05-15T01:56:09.424Z,8.82
2023-05-15T01:58:39.216Z,8.82
2023-05-15T02:01:10.986Z,8.83
2023-05-15T02:03:38.226Z,8.85
2023-05-15T02:06:09.160Z,8.86
2023-05-15T02:08:37.260Z,8.90
2023-05-15T02:11:05.714Z,8.93
2023-05-15T02:13:37.127Z,8.95
2023-05-15T02:16:04.879Z,9.01
2023-05-15T02:18:32.061Z,9.08
2023-05-15T02:21:19.070Z,9.10
2023-05-15T02:23:46.482Z,9.14
2023-05-15T02:26:30.890Z,9.17
2023-05-15T02:29:20.512Z,9.21
2023-05-15T02:32:07.621Z,9.26
2023-05-15T02:34:59.179Z,9.30
2023-05-15T02:37:31.226Z,9.35
2023-05-15T02:40:00.764Z,9.36
2023-05-15T02:42:30.756Z,9.46
2023-05-15T02:44:58.470Z,9.52
2023-05-15T02:47:26.782Z,9.46
2023-05-15T02:49:55.581Z,9.62
2023-05-15T02:52:24.392Z,9.71
2023-05-15T02:54:51.696Z,9.74
2023-05-15T02:57:19.335Z,9.81
2023-05-15T02:59:46.506Z,9.86
2023-05-15T03:02:13.472Z,9.93
2023-05-15T03:04:42.845Z,10.00
2023-05-15T03:07:11.846Z,10.07
2023-05-15T03:09:38.898Z,10.12
2023-05-15T03:12:07.132Z,10.20
2023-05-15T03:14:34.452Z,10.28
2023-05-15T03:17:01.669Z,10.35
2023-05-15T03:19:29.562Z,10.46
2023-05-15T03:21:56.425Z,10.53
2023-05-15T03:24:23.821Z,10.66
2023-05-15T03:26:50.802Z,10.77
2023-05-15T03:29:17.829Z,10.88
2023-05-15T03:31:44.978Z,11.10
2023-05-15T03:34:12.110Z,11.34
2023-05-15T03:36:39.112Z,11.50
2023-05-15T03:39:09.252Z,11.49
2023-05-15T03:41:38.005Z,11.47
2023-05-15T03:44:05.211Z,11.44
2023-05-15T03:46:32.422Z,11.43
2023-05-15T03:48:59.569Z,11.44
2023-05-15T03:51:26.678Z,11.44
2023-05-15T03:53:54.662Z,11.45
2023-05-15T03:56:23.600Z,11.48
2023-05-15T03:58:50.634Z,11.51
2023-05-15T04:01:17.635Z,11.56
2023-05-15T04:03:44.727Z,11.59
2023-05-15T04:06:11.780Z,11.63
2023-05-15T04:08:39.718Z,11.70
2023-05-15T04:11:07.557Z,11.77
2023-05-15T04:13:34.512Z,11.83
2023-05-15T04:16:04.701Z,11.93
2023-05-15T04:18:31.787Z,12.12
2023-05-15T04:20:58.865Z,12.43
2023-05-15T04:23:26.249Z,13.50
2023-05-15T04:25:53.848Z,14.83
2023-05-15T04:28:21.852Z,16.19
2023-05-15T04:30:49.061Z,17.30
2023-05-15T04:33:16.168Z,18.24
2023-05-15T04:35:43.540Z,19.14
2023-05-15T04:38:10.449Z,19.98
2023-05-15T04:40:37.403Z,20.82
2023-05-15T04:43:04.490Z,21.54
2023-05-15T04:45:31.513Z,22.20
2023-05-15T04:47:58.595Z,22.66
2023-05-15T04:50:25.936Z,23.09
2023-05-15T04:52:53.407Z,23.66
2023-05-15T04:55:20.675Z,24.04
2023-05-15T04:57:48.157Z,24.48
2023-05-15T05:00:15.786Z,24.98
2023-05-15T05:02:45.924Z,25.31
2023-05-15T05:05:14.867Z,25.60
2023-05-15T05:07:43.729Z,26.03
2023-05-15T05:10:10.935Z,26.22
2023-05-15T05:12:38.005Z,26.57
2023-05-15T05:15:05.600Z,26.32
2023-05-15T05:17:33.375Z,26.56
2023-05-15T05:20:00.464Z,27.05
2023-05-15T05:22:27.478Z,27.58
2023-05-15T05:24:54.628Z,27.79
2023-05-15T05:27:22.020Z,27.94
2023-05-15T05:29:49.196Z,28.14
2023-05-15T05:32:16.204Z,28.17
2023-05-15T05:34:43.272Z,28.17
2023-05-15T05:37:10.274Z,28.49
2023-05-15T05:39:37.310Z,28.84
2023-05-15T05:42:04.688Z,28.60
2023-05-15T05:44:34.833Z,29.08
2023-05-15T05:47:02.388Z,29.39
2023-05-15T05:49:29.455Z,29.39
2023-05-15T05:51:56.507Z,29.80
2023-05-15T05:54:23.584Z,29.72
2023-05-15T05:56:50.727Z,30.01
2023-05-15T05:59:17.674Z,30.03
2023-05-15T06:01:44.717Z,30.37
2023-05-15T06:04:12.203Z,30.62
2023-05-15T06:06:39.362Z,30.78
2023-05-15T06:09:06.329Z,31.07
2023-05-15T06:11:33.374Z,31.26
2023-05-15T06:14:00.862Z,31.22
2023-05-15T06:16:28.151Z,31.72
2023-05-15T06:18:55.101Z,32.08
2023-05-15T06:21:22.426Z,32.73
2023-05-15T06:23:49.532Z,32.82
2023-05-15T06:26:16.710Z,33.11
2023-05-15T06:28:43.710Z,33.04
2023-05-15T06:31:10.993Z,31.43
2023-05-15T06:33:37.947Z,31.81
2023-05-15T06:36:05.196Z,31.49
2023-05-15T06:38:32.262Z,32.04
2023-05-15T06:40:59.183Z,31.88
2023-05-15T06:43:26.153Z,32.05
2023-05-15T06:45:53.985Z,31.71
2023-05-15T06:48:21.842Z,32.42
2023-05-15T06:50:48.848Z,31.80
2023-05-15T06:53:17.792Z,32.70
2023-05-15T06:55:45.001Z,31.14
2023-05-15T06:58:12.320Z,31.04
2023-05-15T07:00:39.385Z,31.29
2023-05-15T07:03:06.498Z,32.37
2023-05-15T07:05:34.028Z,32.92
2023-05-15T07:08:01.211Z,32.78
2023-05-15T07:10:28.463Z,30.98
2023-05-15T07:12:55.619Z,31.63
2023-05-15T07:15:22.699Z,31.25
2023-05-15T07:17:49.945Z,29.82
2023-05-15T07:20:16.978Z,29.32
2023-05-15T07:22:55.018Z,30.49
2023-05-15T07:25:25.383Z,31.70
2023-05-15T07:27:53.120Z,32.38
2023-05-15T07:30:20.237Z,32.94
2023-05-15T07:32:47.377Z,33.59
2023-05-15T07:35:14.424Z,34.24
2023-05-15T07:37:41.548Z,34.66
2023-05-15T07:40:08.866Z,35.30
2023-05-15T07:42:36.095Z,35.65
2023-05-15T07:45:03.473Z,36.16
2023-05-15T07:47:32.582Z,34.44
2023-05-15T07:49:59.575Z,34.91
2023-05-15T07:52:26.632Z,35.41
2023-05-15T07:54:53.646Z,35.92
2023-05-15T07:57:20.830Z,35.65
2023-05-15T07:59:47.861Z,36.16
2023-05-15T08:02:14.832Z,35.23
2023-05-15T08:04:41.943Z,35.08
2023-05-15T08:07:08.957Z,34.67
2023-05-15T08:09:35.851Z,35.44
2023-05-15T08:12:23.533Z,35.76
2023-05-15T08:14:51.888Z,35.99
2023-05-15T08:17:19.554Z,36.40
2023-05-15T08:19:47.198Z,37.05
2023-05-15T08:22:15.097Z,37.64
2023-05-15T08:24:42.647Z,38.06
2023-05-15T08:27:09.857Z,37.33
2023-05-15T08:29:39.503Z,35.37
2023-05-15T08:32:10.681Z,35.99
2023-05-15T08:34:38.901Z,34.72
2023-05-15T08:37:06.905Z,35.98
2023-05-15T08:39:33.980Z,36.43
2023-05-15T08:42:33.524Z,37.24
2023-05-15T08:45:01.677Z,36.98
2023-05-15T08:47:35.616Z,37.78
2023-05-15T08:50:06.159Z,37.95
2023-05-15T08:52:35.600Z,38.25
2023-05-15T08:55:04.025Z,37.24
2023-05-15T08:57:33.896Z,37.11
2023-05-15T09:00:02.883Z,37.98
2023-05-15T09:02:34.353Z,38.28
2023-05-15T09:05:01.314Z,37.21
2023-05-15T09:07:33.500Z,37.74
2023-05-15T09:10:02.830Z,35.24
2023-05-15T09:12:35.039Z,34.63
2023-05-15T09:15:16.090Z,33.32
2023-05-15T09:17:44.798Z,34.37
2023-05-15T09:20:32.490Z,35.43
2023-05-15T09:23:01.756Z,33.15
2023-05-15T09:25:38.848Z,33.15
2023-05-15T09:28:08.909Z,34.38
2023-05-15T09:30:39.564Z,34.54
2023-05-15T09:33:07.293Z,35.64
2023-05-15T09:35:39.050Z,35.87
2023-05-15T09:38:13.164Z,36.43
2023-05-15T09:40:43.233Z,36.82
2023-05-15T09:43:14.006Z,37.34
2023-05-15T09:45:41.149Z,37.40
2023-05-15T09:48:08.622Z,37.73
2023-05-15T09:50:37.835Z,37.32
2023-05-15T09:53:05.973Z,38.06
2023-05-15T09:55:34.899Z,37.70
2023-05-15T09:58:09.911Z,37.22
2023-05-15T10:00:47.701Z,38.08
2023-05-15T10:03:18.518Z,36.33
2023-05-15T10:05:45.674Z,36.29
2023-05-15T10:08:16.167Z,36.53
2023-05-15T10:10:48.975Z,36.51
2023-05-15T10:13:16.287Z,37.31
2023-05-15T10:15:43.329Z,36.91
2023-05-15T10:18:12.045Z,35.04
2023-05-15T10:20:39.828Z,33.00
2023-05-15T10:23:10.715Z,31.92
2023-05-15T10:25:59.514Z,30.34
2023-05-15T10:28:28.608Z,30.51
2023-05-15T10:31:00.049Z,29.54
2023-05-15T10:33:28.145Z,29.46
2023-05-15T10:35:57.002Z,28.33
2023-05-15T10:38:26.718Z,28.01
2023-05-15T10:41:09.100Z,27.64
2023-05-15T10:43:43.664Z,26.87
2023-05-15T10:46:11.572Z,26.18
2023-05-15T10:48:39.442Z,27.14
2023-05-15T10:51:15.238Z,29.33
2023-05-15T10:53:43.773Z,30.68
2023-05-15T10:56:15.572Z,32.28
2023-05-15T10:58:50.824Z,33.20
2023-05-15T11:01:39.135Z,33.67
2023-05-15T11:04:17.607Z,34.10
2023-05-15T11:06:47.320Z,34.71
2023-05-15T11:09:26.573Z,35.33
2023-05-15T11:12:00.393Z,35.83
2023-05-15T11:14:29.227Z,35.89
2023-05-15T11:16:58.160Z,36.33
2023-05-15T11:19:49.880Z,35.88
2023-05-15T11:22:46.600Z,35.36
2023-05-15T11:25:16.057Z,34.85
2023-05-15T11:27:45.076Z,34.33
2023-05-15T11:30:23.044Z,33.60
2023-05-15T11:32:52.997Z,32.75
2023-05-15T11:35:35.031Z,31.55
2023-05-15T11:38:11.283Z,30.12
2023-05-15T11:40:48.324Z,29.22
2023-05-15T11:43:21.260Z,28.04
2023-05-15T11:46:08.786Z,27.14
2023-05-15T11:48:37.628Z,26.65
2023-05-15T11:51:06.267Z,26.31
2023-05-15T11:53:33.905Z,25.97
2023-05-15T11:56:01.057Z,25.22
2023-05-15T11:58:28.423Z,25.10
2023-05-15T12:00:55.614Z,25.01
2023-05-15T12:03:25.743Z,24.50
2023-05-15T12:05:59.603Z,24.07
2023-05-15T12:08:42.168Z,24.06
2023-05-15T12:11:09.695Z,23.93
2023-05-15T12:13:36.847Z,23.81
2023-05-15T12:16:05.031Z,23.49
2023-05-15T12:18:33.140Z,23.35
2023-05-15T12:21:00.619Z,23.36
2023-05-15T12:23:28.793Z,23.24
2023-05-15T12:26:01.383Z,22.94
2023-05-15T12:28:30.279Z,23.00
2023-05-15T12:30:58.154Z,22.52
2023-05-15T12:33:25.272Z,22.46
2023-05-15T12:36:01.256Z,22.58
2023-05-15T12:38:29.164Z,22.63
2023-05-15T12:40:57.320Z,22.73
2023-05-15T12:43:26.221Z,22.65
2023-05-15T12:45:57.404Z,22.59
2023-05-15T12:48:33.638Z,22.41
2023-05-15T12:51:09.725Z,22.47
2023-05-15T12:53:40.070Z,22.54
2023-05-15T12:56:09.358Z,22.12
2023-05-15T12:58:37.497Z,22.02
2023-05-15T13:01:04.855Z,22.09
2023-05-15T13:03:32.806Z,21.78
2023-05-15T13:06:03.344Z,21.79
2023-05-15T13:08:30.483Z,21.69
2023-05-15T13:11:00.367Z,21.87
2023-05-15T13:13:44.620Z,21.89
2023-05-15T13:16:33.091Z,21.92
2023-05-15T13:19:00.370Z,21.94
2023-05-15T13:21:27.467Z,21.95
2023-05-15T13:23:54.504Z,21.72
2023-05-15T13:26:21.956Z,21.54
2023-05-15T13:28:49.085Z,21.54
2023-05-15T13:31:17.308Z,21.62
2023-05-15T13:33:44.482Z,21.59
2023-05-15T13:36:11.933Z,21.68
2023-05-15T13:38:38.849Z,21.61
2023-05-15T13:41:05.976Z,21.66
2023-05-15T13:43:32.943Z,21.54
2023-05-15T13:46:00.046Z,21.35
2023-05-15T13:48:27.335Z,21.30
2023-05-15T13:50:54.291Z,21.39
2023-05-15T13:53:21.354Z,21.37
2023-05-15T13:55:48.435Z,21.35
2023-05-15T13:58:15.602Z,21.33
2023-05-15T14:00:43.813Z,21.30
2023-05-15T14:03:13.413Z,21.27
2023-05-15T14:05:42.277Z,21.27
2023-05-15T14:08:09.542Z,21.27
2023-05-15T14:10:37.438Z,21.18
2023-05-15T14:13:04.701Z,20.97
2023-05-15T14:15:31.822Z,21.01
2023-05-15T14:17:58.870Z,20.89
2023-05-15T14:20:26.272Z,20.88
2023-05-15T14:22:53.419Z,20.97
2023-05-15T14:25:20.514Z,20.68
2023-05-15T14:27:47.757Z,20.91
2023-05-15T14:30:14.949Z,20.87
2023-05-15T14:32:42.219Z,20.83
2023-05-15T14:35:09.301Z,20.75
2023-05-15T14:37:36.857Z,20.71
2023-05-15T14:40:05.115Z,20.60
2023-05-15T14:42:32.736Z,20.53
2023-05-15T14:44:59.977Z,20.57
2023-05-15T14:47:30.427Z,20.56
2023-05-15T14:49:57.440Z,20.55
2023-05-15T14:52:24.411Z,20.73
2023-05-15T14:55:04.688Z,20.78
2023-05-15T14:57:35.883Z,20.67
2023-05-15T15:00:04.814Z,20.61
2023-05-15T15:02:33.127Z,20.49
2023-05-15T15:05:00.251Z,20.47
2023-05-15T15:07:33.300Z,20.35
2023-05-15T15:10:02.718Z,20.34
2023-05-15T15:12:31.841Z,20.33
2023-05-15T15:14:58.826Z,20.31
2023-05-15T15:17:25.737Z,20.21
2023-05-15T15:19:52.818Z,20.17
2023-05-15T15:22:19.708Z,20.08
2023-05-15T15:24:46.897Z,20.02
2023-05-15T15:27:13.916Z,20.00
2023-05-15T15:29:40.836Z,19.99
2023-05-15T15:32:08.331Z,19.99
2023-05-15T15:34:35.483Z,19.97
2023-05-15T15:37:02.448Z,19.93
2023-05-15T15:39:29.415Z,19.88
2023-05-15T15:41:56.471Z,19.82
2023-05-15T15:44:23.881Z,19.78
2023-05-15T15:46:50.975Z,19.74
2023-05-15T15:49:18.028Z,19.74
2023-05-15T15:51:45.305Z,19.70
2023-05-15T15:54:12.271Z,19.70
2023-05-15T15:56:40.353Z,19.66
2023-05-15T15:59:07.291Z,19.57
2023-05-15T16:01:34.443Z,19.48
2023-05-15T16:04:01.567Z,19.38
2023-05-15T16:06:28.718Z,19.33
2023-05-15T16:08:55.644Z,19.29
2023-05-15T16:11:22.736Z,19.21
2023-05-15T16:13:50.186Z,19.17
2023-05-15T16:16:17.476Z,19.10
2023-05-15T16:18:44.920Z,19.05
2023-05-15T16:21:12.634Z,19.00
2023-05-15T16:23:41.554Z,18.95
2023-05-15T16:26:09.513Z,18.84
2023-05-15T16:28:36.791Z,18.84
2023-05-15T16:31:04.265Z,18.78
2023-05-15T16:33:32.576Z,18.73
2023-05-15T16:35:59.552Z,18.63
2023-05-15T16:38:26.726Z,18.60
2023-05-15T16:40:53.687Z,18.59
2023-05-15T16:43:21.994Z,18.53
2023-05-15T16:45:49.202Z,18.53
2023-05-15T16:48:16.655Z,18.50
2023-05-15T16:50:43.646Z,18.44
2023-05-15T16:53:10.887Z,18.42
2023-05-15T16:55:38.212Z,18.37
2023-05-15T16:58:05.243Z,18.33
2023-05-15T17:00:32.375Z,18.29
2023-05-15T17:02:59.430Z,18.24
2023-05-15T17:05:26.870Z,18.18
2023-05-15T17:07:53.818Z,18.12
2023-05-15T17:10:20.867Z,18.05
2023-05-15T17:12:47.883Z,17.98
2023-05-15T17:15:14.915Z,17.89
2023-05-15T17:17:41.983Z,17.80
2023-05-15T17:20:09.698Z,17.71
2023-05-15T17:22:37.071Z,17.59
2023-05-15T17:25:04.764Z,17.50
2023-05-15T17:27:34.905Z,17.41
2023-05-15T17:30:02.086Z,17.31
2023-05-15T17:32:31.519Z,17.23
2023-05-15T17:34:58.807Z,17.12
2023-05-15T17:37:26.122Z,17.05
2023-05-15T17:39:54.752Z,16.93
2023-05-15T17:42:24.027Z,16.86
2023-05-15T17:44:51.353Z,16.76
2023-05-15T17:47:18.290Z,16.69
2023-05-15T17:49:45.624Z,16.60
2023-05-15T17:52:12.541Z,16.53
2023-05-15T17:54:39.509Z,16.41
2023-05-15T17:57:06.517Z,16.35
2023-05-15T17:59:33.725Z,16.26
2023-05-15T18:02:01.551Z,16.17
2023-05-15T18:04:28.786Z,16.10
2023-05-15T18:06:55.938Z,16.06
2023-05-15T18:09:24.475Z,16.02
2023-05-15T18:11:52.128Z,15.96
2023-05-15T18:14:19.066Z,15.93
2023-05-15T18:16:46.174Z,15.86
2023-05-15T18:19:13.291Z,15.83
2023-05-15T18:21:40.485Z,15.82
2023-05-15T18:24:07.743Z,15.77
2023-05-15T18:26:34.954Z,15.74
2023-05-15T18:29:02.045Z,15.71
2023-05-15T18:31:29.134Z,15.66
2023-05-15T18:33:56.223Z,15.62
2023-05-15T18:36:23.272Z,15.58
2023-05-15T18:38:50.202Z,15.52
2023-05-15T18:41:19.149Z,15.46
2023-05-15T18:43:46.486Z,15.40
2023-05-15T18:46:13.748Z,15.33
2023-05-15T18:48:41.024Z,15.31
2023-05-15T18:51:09.821Z,15.26
2023-05-15T18:53:37.110Z,15.22
2023-05-15T18:56:04.656Z,15.15
2023-05-15T18:58:31.897Z,15.09
2023-05-15T19:01:00.264Z,15.02
2023-05-15T19:03:27.713Z,14.98
2023-05-15T19:05:56.632Z,14.93
2023-05-15T19:08:23.966Z,14.88
2023-05-15T19:10:53.450Z,14.81
2023-05-15T19:13:20.927Z,14.75
2023-05-15T19:15:54.100Z,14.67
2023-05-15T19:18:21.146Z,14.63
2023-05-15T19:20:52.214Z,14.57
2023-05-15T19:23:20.805Z,14.52
2023-05-15T19:25:48.380Z,14.46
2023-05-15T19:28:15.721Z,14.43
2023-05-15T19:30:45.132Z,14.39
2023-05-15T19:33:13.068Z,14.33
2023-05-15T19:35:40.745Z,14.28
2023-05-15T19:38:08.077Z,14.23
2023-05-15T19:40:36.025Z,14.17
2023-05-15T19:43:03.325Z,14.13
2023-05-15T19:45:30.634Z,14.06
2023-05-15T19:48:00.628Z,14.03
2023-05-15T19:50:27.787Z,13.97
2023-05-15T19:52:55.122Z,13.93
2023-05-15T19:55:22.271Z,13.89
2023-05-15T19:57:49.693Z,13.82
2023-05-15T20:00:17.070Z,13.80
2023-05-15T20:02:46.060Z,13.75
2023-05-15T20:05:13.133Z,13.71
2023-05-15T20:07:40.113Z,13.68
2023-05-15T20:10:09.372Z,13.64
2023-05-15T20:12:36.487Z,13.53
2023-05-15T20:15:03.768Z,13.59
2023-05-15T20:17:31.544Z,13.56
2023-05-15T20:19:59.383Z,13.52
2023-05-15T20:22:26.582Z,13.48
2023-05-15T20:24:53.674Z,13.45
2023-05-15T20:27:20.882Z,13.43
2023-05-15T20:29:48.034Z,13.38
2023-05-15T20:32:15.312Z,13.36
2023-05-15T20:34:45.749Z,13.33
2023-05-15T20:37:14.266Z,13.29
2023-05-15T20:39:41.446Z,13.27
2023-05-15T20:42:08.673Z,13.19
2023-05-15T20:44:39.920Z,13.19
2023-05-15T20:47:07.144Z,13.17
2023-05-15T20:49:34.082Z,13.14
2023-05-15T20:52:01.110Z,13.11
2023-05-15T20:54:28.325Z,13.07
2023-05-15T20:56:55.354Z,13.07
2023-05-15T20:59:22.438Z,13.01
2023-05-15T21:01:49.592Z,13.00
2023-05-15T21:04:16.720Z,12.95
2023-05-15T21:06:43.951Z,12.95
2023-05-15T21:09:10.934Z,12.89
2023-05-15T21:11:37.912Z,12.88
2023-05-15T21:14:04.977Z,12.80
2023-05-15T21:16:35.431Z,12.81
2023-05-15T21:19:02.583Z,12.80
2023-05-15T21:21:29.565Z,12.76
2023-05-15T21:23:56.627Z,12.68
2023-05-15T21:26:23.614Z,12.68
2023-05-15T21:28:50.592Z,12.63
2023-05-15T21:31:17.689Z,12.59
2023-05-15T21:33:44.746Z,12.57
2023-05-15T21:36:11.727Z,12.52
2023-05-15T21:38:38.828Z,12.45
2023-05-15T21:41:05.846Z,12.45
2023-05-15T21:43:32.831Z,12.39
2023-05-15T21:45:59.795Z,12.39
2023-05-15T21:48:26.819Z,12.33
2023-05-15T21:50:57.165Z,12.33
2023-05-15T21:53:25.689Z,12.26
2023-05-15T21:56:00.288Z,12.24
2023-05-15T21:58:27.585Z,12.20
2023-05-15T22:00:54.852Z,12.18
2023-05-15T22:03:22.369Z,12.12
2023-05-15T22:05:52.987Z,12.12
2023-05-15T22:08:21.307Z,12.10
2023-05-15T22:10:49.077Z,12.07
2023-05-15T22:13:16.132Z,12.02
2023-05-15T22:15:44.471Z,12.02
2023-05-15T22:18:13.402Z,11.91
2023-05-15T22:20:41.705Z,11.94
2023-05-15T22:23:08.904Z,11.90
2023-05-15T22:25:36.149Z,11.88
2023-05-15T22:28:03.536Z,11.83
2023-05-15T22:30:31.256Z,11.82
2023-05-15T22:32:58.288Z,11.75
2023-05-15T22:35:25.728Z,11.73
2023-05-15T22:37:52.980Z,11.69
2023-05-15T22:40:20.142Z,11.68
2023-05-15T22:42:50.391Z,11.62
2023-05-15T22:45:18.656Z,11.61
2023-05-15T22:47:46.357Z,11.59
2023-05-15T22:50:14.317Z,11.57
2023-05-15T22:52:41.334Z,11.55
2023-05-15T22:55:10.446Z,11.53
2023-05-15T22:57:37.668Z,11.50
2023-05-15T23:00:07.056Z,11.46
2023-05-15T23:02:37.458Z,11.40
2023-05-15T23:05:05.343Z,11.36
2023-05-15T23:07:39.229Z,11.35
2023-05-15T23:10:07.249Z,11.30
2023-05-15T23:12:34.169Z,11.23
2023-05-15T23:15:01.781Z,11.23
2023-05-15T23:17:33.074Z,11.20
2023-05-15T23:20:00.255Z,11.18
2023-05-15T23:22:27.350Z,11.17
2023-05-15T23:24:54.399Z,11.14
2023-05-15T23:27:21.905Z,10.98
2023-05-15T23:29:48.939Z,11.08
2023-05-15T23:32:16.018Z,11.09
2023-05-15T23:34:42.996Z,11.07
2023-05-15T23:37:10.232Z,11.03
2023-05-15T23:39:37.352Z,10.99
2023-05-15T23:42:10.104Z,10.98
2023-05-15T23:44:37.119Z,10.90
2023-05-15T23:47:04.589Z,10.91
2023-05-15T23:49:32.993Z,10.85
2023-05-15T23:52:00.127Z,10.83
2023-05-15T23:54:28.048Z,10.83
2023-05-15T23:56:55.133Z,10.77
2023-05-15T23:59:23.307Z,10.75
